sensor_id;sensor_type;location;lat;lon;timestamp;P1;P2;P0
45700;PMS5003;36277;32.852;-116.998;2022-10-31T00:02:15;46.50;40.00;26.50
45700;PMS5003;36277;32.852;-116.998;2022-10-31T00:04:41;37.25;34.00;22.50
45700;PMS5003;36277;32.852;-116.998;2022-10-31T00:07:07;34.50;32.25;22.25
45700;PMS5003;36277;32.852;-116.998;2022-10-31T00:09:34;33.50;32.00;20.75
45700;PMS5003;36277;32.852;-116.998;2022-10-31T00:12:00;32.75;32.50;22.50
45700;PMS5003;36277;32.852;-116.998;2022-10-31T00:14:26;32.25;30.50;21.50
45700;PMS5003;36277;32.852;-116.998;2022-10-31T00:16:52;22.20;22.20;15.80
45700;PMS5003;36277;32.852;-116.998;2022-10-31T00:19:18;26.20;25.80;17.00
45700;PMS5003;36277;32.852;-116.998;2022-10-31T00:21:45;23.40;23.40;18.40
45700;PMS5003;36277;32.852;-116.998;2022-10-31T00:24:11;17.60;17.60;13.40
45700;PMS5003;36277;32.852;-116.998;2022-10-31T00:26:37;19.60;19.60;16.20
45700;PMS5003;36277;32.852;-116.998;2022-10-31T00:29:03;19.20;19.20;14.80
45700;PMS5003;36277;32.852;-116.998;2022-10-31T00:31:30;20.60;20.60;14.60
45700;PMS5003;36277;32.852;-116.998;2022-10-31T00:33:56;17.40;17.40;14.40
45700;PMS5003;36277;32.852;-116.998;2022-10-31T00:36:23;20.80;20.80;15.80
45700;PMS5003;36277;32.852;-116.998;2022-10-31T00:38:49;19.40;19.40;15.00
45700;PMS5003;36277;32.852;-116.998;2022-10-31T00:41:16;17.00;17.00;11.00
45700;PMS5003;36277;32.852;-116.998;2022-10-31T00:43:43;14.80;14.80;12.40
45700;PMS5003;36277;32.852;-116.998;2022-10-31T00:46:10;11.00;11.00;9.20
45700;PMS5003;36277;32.852;-116.998;2022-10-31T00:48:37;12.60;12.60;9.40
45700;PMS5003;36277;32.852;-116.998;2022-10-31T00:51:03;14.60;14.60;11.00
45700;PMS5003;36277;32.852;-116.998;2022-10-31T00:53:30;17.40;17.40;13.00
45700;PMS5003;36277;32.852;-116.998;2022-10-31T00:55:57;14.60;14.60;13.40
45700;PMS5003;36277;32.852;-116.998;2022-10-31T00:58:23;16.60;16.60;12.40
45700;PMS5003;36277;32.852;-116.998;2022-10-31T01:00:49;16.60;14.80;10.40
45700;PMS5003;36277;32.852;-116.998;2022-10-31T01:03:27;14.20;14.20;11.40
45700;PMS5003;36277;32.852;-116.998;2022-10-31T01:08:35;11.40;11.40;9.00
45700;PMS5003;36277;32.852;-116.998;2022-10-31T01:13:31;11.60;11.60;7.40
45700;PMS5003;36277;32.852;-116.998;2022-10-31T01:15:59;11.60;11.60;7.80
45700;PMS5003;36277;32.852;-116.998;2022-10-31T01:18:26;9.40;9.40;7.40
45700;PMS5003;36277;32.852;-116.998;2022-10-31T01:20:57;12.80;12.80;10.60
45700;PMS5003;36277;32.852;-116.998;2022-10-31T01:23:24;10.40;10.40;9.20
45700;PMS5003;36277;32.852;-116.998;2022-10-31T01:25:58;9.40;9.40;8.80
45700;PMS5003;36277;32.852;-116.998;2022-10-31T01:28:25;11.60;11.60;9.80
45700;PMS5003;36277;32.852;-116.998;2022-10-31T01:30:52;10.80;10.80;9.60
45700;PMS5003;36277;32.852;-116.998;2022-10-31T01:33:18;10.60;10.60;8.40
45700;PMS5003;36277;32.852;-116.998;2022-10-31T01:35:44;10.40;10.40;8.60
45700;PMS5003;36277;32.852;-116.998;2022-10-31T01:38:10;6.20;6.20;5.00
45700;PMS5003;36277;32.852;-116.998;2022-10-31T01:40:37;8.40;8.40;7.20
45700;PMS5003;36277;32.852;-116.998;2022-10-31T01:43:03;8.00;8.00;6.00
45700;PMS5003;36277;32.852;-116.998;2022-10-31T01:45:29;8.40;8.40;6.40
45700;PMS5003;36277;32.852;-116.998;2022-10-31T01:47:56;7.40;7.40;6.80
45700;PMS5003;36277;32.852;-116.998;2022-10-31T01:50:26;9.80;9.80;6.00
45700;PMS5003;36277;32.852;-116.998;2022-10-31T01:52:57;8.80;8.80;7.00
45700;PMS5003;36277;32.852;-116.998;2022-10-31T01:55:35;7.80;7.80;6.00
45700;PMS5003;36277;32.852;-116.998;2022-10-31T01:58:09;7.60;7.60;6.40
45700;PMS5003;36277;32.852;-116.998;2022-10-31T02:00:39;8.20;8.20;6.40
45700;PMS5003;36277;32.852;-116.998;2022-10-31T02:03:08;9.80;9.00;7.20
45700;PMS5003;36277;32.852;-116.998;2022-10-31T02:05:35;7.20;7.20;6.00
45700;PMS5003;36277;32.852;-116.998;2022-10-31T02:10:34;7.20;7.20;6.80
45700;PMS5003;36277;32.852;-116.998;2022-10-31T02:13:04;5.00;5.00;5.00
45700;PMS5003;36277;32.852;-116.998;2022-10-31T02:15:33;6.20;6.20;5.20
45700;PMS5003;36277;32.852;-116.998;2022-10-31T02:18:02;6.00;6.00;4.60
45700;PMS5003;36277;32.852;-116.998;2022-10-31T02:20:52;3.60;3.60;3.00
45700;PMS5003;36277;32.852;-116.998;2022-10-31T02:23:53;4.60;4.60;4.00
45700;PMS5003;36277;32.852;-116.998;2022-10-31T02:26:52;7.60;7.60;6.00
45700;PMS5003;36277;32.852;-116.998;2022-10-31T02:39:33;5.00;5.00;4.20
45700;PMS5003;36277;32.852;-116.998;2022-10-31T02:41:47;5.40;5.40;4.40
45700;PMS5003;36277;32.852;-116.998;2022-10-31T02:44:35;4.40;4.40;4.20
45700;PMS5003;36277;32.852;-116.998;2022-10-31T02:47:19;6.00;6.00;5.20
45700;PMS5003;36277;32.852;-116.998;2022-10-31T02:52:52;6.00;6.00;5.20
45700;PMS5003;36277;32.852;-116.998;2022-10-31T02:57:54;5.00;5.00;4.40
45700;PMS5003;36277;32.852;-116.998;2022-10-31T03:00:27;5.40;5.40;4.60
45700;PMS5003;36277;32.852;-116.998;2022-10-31T03:03:08;5.40;5.40;5.00
45700;PMS5003;36277;32.852;-116.998;2022-10-31T03:08:22;4.40;4.40;4.00
45700;PMS5003;36277;32.852;-116.998;2022-10-31T03:10:59;4.80;4.80;4.00
45700;PMS5003;36277;32.852;-116.998;2022-10-31T03:16:11;4.00;4.00;3.00
45700;PMS5003;36277;32.852;-116.998;2022-10-31T03:19:00;5.00;5.00;4.00
45700;PMS5003;36277;32.852;-116.998;2022-10-31T03:21:40;6.00;6.00;5.60
45700;PMS5003;36277;32.852;-116.998;2022-10-31T03:24:29;5.60;5.60;5.00
45700;PMS5003;36277;32.852;-116.998;2022-10-31T03:26:59;6.00;6.00;5.00
45700;PMS5003;36277;32.852;-116.998;2022-10-31T03:29:28;5.60;5.60;4.60
45700;PMS5003;36277;32.852;-116.998;2022-10-31T03:32:01;5.80;5.80;4.60
45700;PMS5003;36277;32.852;-116.998;2022-10-31T03:34:46;6.60;6.60;6.20
45700;PMS5003;36277;32.852;-116.998;2022-10-31T03:37:16;4.40;4.40;4.40
45700;PMS5003;36277;32.852;-116.998;2022-10-31T03:39:46;4.80;4.80;4.40
45700;PMS5003;36277;32.852;-116.998;2022-10-31T03:42:16;5.20;5.20;4.80
45700;PMS5003;36277;32.852;-116.998;2022-10-31T03:44:49;4.20;4.20;4.20
45700;PMS5003;36277;32.852;-116.998;2022-10-31T03:47:30;5.80;5.80;5.00
45700;PMS5003;36277;32.852;-116.998;2022-10-31T03:49:57;5.60;5.60;5.40
45700;PMS5003;36277;32.852;-116.998;2022-10-31T03:55:17;5.40;5.40;4.60
45700;PMS5003;36277;32.852;-116.998;2022-10-31T03:57:53;4.60;4.60;4.00
45700;PMS5003;36277;32.852;-116.998;2022-10-31T04:00:23;4.00;4.00;4.00
45700;PMS5003;36277;32.852;-116.998;2022-10-31T04:03:00;5.80;5.80;5.00
45700;PMS5003;36277;32.852;-116.998;2022-10-31T04:05:32;5.00;5.00;4.40
45700;PMS5003;36277;32.852;-116.998;2022-10-31T04:08:00;3.00;3.00;1.80
45700;PMS5003;36277;32.852;-116.998;2022-10-31T04:10:29;5.20;5.20;5.00
45700;PMS5003;36277;32.852;-116.998;2022-10-31T04:13:01;4.00;4.00;4.00
45700;PMS5003;36277;32.852;-116.998;2022-10-31T04:15:34;5.80;5.80;4.80
45700;PMS5003;36277;32.852;-116.998;2022-10-31T04:18:03;4.00;4.00;4.00
45700;PMS5003;36277;32.852;-116.998;2022-10-31T04:20:32;4.20;4.20;4.00
45700;PMS5003;36277;32.852;-116.998;2022-10-31T04:23:00;5.60;5.60;4.40
45700;PMS5003;36277;32.852;-116.998;2022-10-31T04:25:27;4.00;4.00;4.00
45700;PMS5003;36277;32.852;-116.998;2022-10-31T04:27:54;5.20;5.20;4.20
45700;PMS5003;36277;32.852;-116.998;2022-10-31T04:30:20;5.80;5.80;4.80
45700;PMS5003;36277;32.852;-116.998;2022-10-31T04:32:47;4.00;4.00;4.00
45700;PMS5003;36277;32.852;-116.998;2022-10-31T04:35:13;3.00;3.00;3.00
45700;PMS5003;36277;32.852;-116.998;2022-10-31T04:37:43;4.00;4.00;3.60
45700;PMS5003;36277;32.852;-116.998;2022-10-31T04:40:09;3.00;3.00;3.00
45700;PMS5003;36277;32.852;-116.998;2022-10-31T04:42:36;5.00;5.00;4.00
45700;PMS5003;36277;32.852;-116.998;2022-10-31T04:45:03;4.00;4.00;4.00
45700;PMS5003;36277;32.852;-116.998;2022-10-31T04:47:30;4.00;4.00;3.40
45700;PMS5003;36277;32.852;-116.998;2022-10-31T04:49:58;4.80;4.80;3.80
45700;PMS5003;36277;32.852;-116.998;2022-10-31T04:52:25;5.00;5.00;5.00
45700;PMS5003;36277;32.852;-116.998;2022-10-31T04:54:51;3.00;3.00;2.00
45700;PMS5003;36277;32.852;-116.998;2022-10-31T04:57:17;4.00;4.00;3.20
45700;PMS5003;36277;32.852;-116.998;2022-10-31T04:59:43;4.00;4.00;4.00
45700;PMS5003;36277;32.852;-116.998;2022-10-31T05:02:09;4.20;4.00;4.00
45700;PMS5003;36277;32.852;-116.998;2022-10-31T05:04:36;5.00;5.00;4.80
45700;PMS5003;36277;32.852;-116.998;2022-10-31T05:07:02;5.00;5.00;4.00
45700;PMS5003;36277;32.852;-116.998;2022-10-31T05:09:28;4.00;4.00;3.00
45700;PMS5003;36277;32.852;-116.998;2022-10-31T05:11:54;3.60;3.60;3.00
45700;PMS5003;36277;32.852;-116.998;2022-10-31T05:14:21;3.00;3.00;2.60
45700;PMS5003;36277;32.852;-116.998;2022-10-31T05:16:47;4.20;4.20;2.60
45700;PMS5003;36277;32.852;-116.998;2022-10-31T05:19:13;4.00;4.00;3.60
45700;PMS5003;36277;32.852;-116.998;2022-10-31T05:21:40;2.80;2.80;2.40
45700;PMS5003;36277;32.852;-116.998;2022-10-31T05:24:06;3.60;3.60;3.00
45700;PMS5003;36277;32.852;-116.998;2022-10-31T05:26:32;1.80;1.80;1.80
45700;PMS5003;36277;32.852;-116.998;2022-10-31T05:28:59;3.20;3.20;3.20
45700;PMS5003;36277;32.852;-116.998;2022-10-31T05:31:25;1.40;1.40;0.60
45700;PMS5003;36277;32.852;-116.998;2022-10-31T05:33:51;3.00;3.00;3.00
45700;PMS5003;36277;32.852;-116.998;2022-10-31T05:36:17;3.00;3.00;2.20
45700;PMS5003;36277;32.852;-116.998;2022-10-31T05:38:44;2.20;2.20;2.20
45700;PMS5003;36277;32.852;-116.998;2022-10-31T05:41:10;3.00;3.00;3.00
45700;PMS5003;36277;32.852;-116.998;2022-10-31T05:43:36;3.00;3.00;3.00
45700;PMS5003;36277;32.852;-116.998;2022-10-31T05:46:02;2.40;2.40;2.40
45700;PMS5003;36277;32.852;-116.998;2022-10-31T05:48:29;1.60;1.60;1.40
45700;PMS5003;36277;32.852;-116.998;2022-10-31T05:50:55;2.00;2.00;2.00
45700;PMS5003;36277;32.852;-116.998;2022-10-31T05:53:21;2.20;2.20;2.00
45700;PMS5003;36277;32.852;-116.998;2022-10-31T05:55:47;2.80;2.80;2.00
45700;PMS5003;36277;32.852;-116.998;2022-10-31T05:58:13;2.00;2.00;2.00
45700;PMS5003;36277;32.852;-116.998;2022-10-31T06:00:40;2.60;2.60;2.60
45700;PMS5003;36277;32.852;-116.998;2022-10-31T06:03:07;2.00;2.00;2.00
45700;PMS5003;36277;32.852;-116.998;2022-10-31T06:05:34;2.00;2.00;2.00
45700;PMS5003;36277;32.852;-116.998;2022-10-31T06:08:01;2.00;2.00;2.00
45700;PMS5003;36277;32.852;-116.998;2022-10-31T06:10:27;1.40;1.40;1.20
45700;PMS5003;36277;32.852;-116.998;2022-10-31T06:12:54;1.60;1.60;1.60
45700;PMS5003;36277;32.852;-116.998;2022-10-31T06:15:20;2.00;2.00;2.00
45700;PMS5003;36277;32.852;-116.998;2022-10-31T06:17:47;2.20;2.20;2.00
45700;PMS5003;36277;32.852;-116.998;2022-10-31T06:20:23;1.00;1.00;1.00
45700;PMS5003;36277;32.852;-116.998;2022-10-31T06:22:50;2.00;2.00;2.00
45700;PMS5003;36277;32.852;-116.998;2022-10-31T06:25:16;1.40;1.40;1.00
45700;PMS5003;36277;32.852;-116.998;2022-10-31T06:27:42;2.00;2.00;2.00
45700;PMS5003;36277;32.852;-116.998;2022-10-31T06:30:08;2.00;2.00;1.80
45700;PMS5003;36277;32.852;-116.998;2022-10-31T06:32:35;2.00;2.00;2.00
45700;PMS5003;36277;32.852;-116.998;2022-10-31T06:35:01;2.00;2.00;2.00
45700;PMS5003;36277;32.852;-116.998;2022-10-31T06:37:27;2.00;2.00;2.00
45700;PMS5003;36277;32.852;-116.998;2022-10-31T06:39:54;3.00;3.00;2.80
45700;PMS5003;36277;32.852;-116.998;2022-10-31T06:42:20;3.00;3.00;2.20
45700;PMS5003;36277;32.852;-116.998;2022-10-31T06:44:46;2.40;2.40;2.00
45700;PMS5003;36277;32.852;-116.998;2022-10-31T06:47:12;2.00;2.00;1.60
45700;PMS5003;36277;32.852;-116.998;2022-10-31T06:49:38;2.60;2.60;2.60
45700;PMS5003;36277;32.852;-116.998;2022-10-31T06:52:04;1.80;1.80;1.80
45700;PMS5003;36277;32.852;-116.998;2022-10-31T06:54:31;2.80;2.80;2.80
45700;PMS5003;36277;32.852;-116.998;2022-10-31T06:56:57;2.00;2.00;2.00
45700;PMS5003;36277;32.852;-116.998;2022-10-31T06:59:23;2.00;2.00;2.00
45700;PMS5003;36277;32.852;-116.998;2022-10-31T07:01:49;2.00;2.00;2.00
45700;PMS5003;36277;32.852;-116.998;2022-10-31T07:04:16;2.00;2.00;2.00
45700;PMS5003;36277;32.852;-116.998;2022-10-31T07:06:42;2.40;2.40;2.40
45700;PMS5003;36277;32.852;-116.998;2022-10-31T07:09:08;1.20;1.20;1.20
45700;PMS5003;36277;32.852;-116.998;2022-10-31T07:11:35;2.80;2.80;2.80
45700;PMS5003;36277;32.852;-116.998;2022-10-31T07:14:01;0.00;0.00;0.00
45700;PMS5003;36277;32.852;-116.998;2022-10-31T07:16:27;2.20;2.20;2.00
45700;PMS5003;36277;32.852;-116.998;2022-10-31T07:18:54;2.60;2.60;2.20
45700;PMS5003;36277;32.852;-116.998;2022-10-31T07:21:20;3.00;3.00;2.00
45700;PMS5003;36277;32.852;-116.998;2022-10-31T07:23:49;2.00;2.00;2.00
45700;PMS5003;36277;32.852;-116.998;2022-10-31T07:26:15;3.20;3.20;3.00
45700;PMS5003;36277;32.852;-116.998;2022-10-31T07:28:41;2.00;2.00;2.00
45700;PMS5003;36277;32.852;-116.998;2022-10-31T07:31:08;2.00;2.00;1.20
45700;PMS5003;36277;32.852;-116.998;2022-10-31T07:33:34;2.00;2.00;2.00
45700;PMS5003;36277;32.852;-116.998;2022-10-31T07:36:00;2.60;2.60;2.00
45700;PMS5003;36277;32.852;-116.998;2022-10-31T07:38:26;2.40;2.40;2.00
45700;PMS5003;36277;32.852;-116.998;2022-10-31T07:40:52;1.80;1.80;1.00
45700;PMS5003;36277;32.852;-116.998;2022-10-31T07:43:19;2.00;2.00;2.00
45700;PMS5003;36277;32.852;-116.998;2022-10-31T07:45:52;2.00;2.00;2.00
45700;PMS5003;36277;32.852;-116.998;2022-10-31T07:48:18;2.20;2.20;2.00
45700;PMS5003;36277;32.852;-116.998;2022-10-31T07:50:45;2.40;2.40;2.20
45700;PMS5003;36277;32.852;-116.998;2022-10-31T07:53:12;2.00;2.00;2.00
45700;PMS5003;36277;32.852;-116.998;2022-10-31T07:55:39;2.80;2.80;2.80
45700;PMS5003;36277;32.852;-116.998;2022-10-31T07:58:10;3.00;3.00;3.00
45700;PMS5003;36277;32.852;-116.998;2022-10-31T08:00:39;3.00;3.00;2.80
45700;PMS5003;36277;32.852;-116.998;2022-10-31T08:03:08;2.00;2.00;2.00
45700;PMS5003;36277;32.852;-116.998;2022-10-31T08:05:38;2.00;2.00;2.00
45700;PMS5003;36277;32.852;-116.998;2022-10-31T08:08:06;3.00;3.00;2.00
45700;PMS5003;36277;32.852;-116.998;2022-10-31T08:10:33;2.00;2.00;2.00
45700;PMS5003;36277;32.852;-116.998;2022-10-31T08:13:01;2.80;2.80;2.40
45700;PMS5003;36277;32.852;-116.998;2022-10-31T08:15:32;2.80;2.80;2.40
45700;PMS5003;36277;32.852;-116.998;2022-10-31T08:18:02;2.00;2.00;1.60
45700;PMS5003;36277;32.852;-116.998;2022-10-31T08:20:29;2.00;2.00;2.00
45700;PMS5003;36277;32.852;-116.998;2022-10-31T08:22:59;2.20;2.20;2.00
45700;PMS5003;36277;32.852;-116.998;2022-10-31T08:25:27;3.00;3.00;3.00
45700;PMS5003;36277;32.852;-116.998;2022-10-31T08:27:55;1.00;1.00;1.00
45700;PMS5003;36277;32.852;-116.998;2022-10-31T08:30:23;2.00;2.00;2.00
45700;PMS5003;36277;32.852;-116.998;2022-10-31T08:33:09;2.80;2.80;2.80
45700;PMS5003;36277;32.852;-116.998;2022-10-31T08:35:37;2.40;2.40;2.40
45700;PMS5003;36277;32.852;-116.998;2022-10-31T08:38:03;2.00;2.00;2.00
45700;PMS5003;36277;32.852;-116.998;2022-10-31T08:40:31;3.00;3.00;2.60
45700;PMS5003;36277;32.852;-116.998;2022-10-31T08:43:03;1.40;1.40;1.20
45700;PMS5003;36277;32.852;-116.998;2022-10-31T08:45:31;2.00;2.00;2.00
45700;PMS5003;36277;32.852;-116.998;2022-10-31T08:47:59;2.60;2.60;2.20
45700;PMS5003;36277;32.852;-116.998;2022-10-31T08:50:27;3.00;3.00;2.60
45700;PMS5003;36277;32.852;-116.998;2022-10-31T08:53:16;3.00;3.00;2.00
45700;PMS5003;36277;32.852;-116.998;2022-10-31T08:55:42;2.00;2.00;2.00
45700;PMS5003;36277;32.852;-116.998;2022-10-31T08:58:10;2.00;2.00;2.00
45700;PMS5003;36277;32.852;-116.998;2022-10-31T09:00:41;2.60;2.60;2.60
45700;PMS5003;36277;32.852;-116.998;2022-10-31T09:03:11;2.00;2.00;2.00
45700;PMS5003;36277;32.852;-116.998;2022-10-31T09:05:39;3.00;3.00;2.80
45700;PMS5003;36277;32.852;-116.998;2022-10-31T09:08:06;2.80;2.80;2.40
45700;PMS5003;36277;32.852;-116.998;2022-10-31T09:10:33;2.20;2.20;2.00
45700;PMS5003;36277;32.852;-116.998;2022-10-31T09:13:02;2.00;2.00;2.00
45700;PMS5003;36277;32.852;-116.998;2022-10-31T09:15:31;2.00;2.00;2.00
45700;PMS5003;36277;32.852;-116.998;2022-10-31T09:18:03;2.40;2.40;2.40
45700;PMS5003;36277;32.852;-116.998;2022-10-31T09:20:31;2.00;2.00;2.00
45700;PMS5003;36277;32.852;-116.998;2022-10-31T09:22:59;2.60;2.60;2.60
45700;PMS5003;36277;32.852;-116.998;2022-10-31T09:25:36;2.00;2.00;1.80
45700;PMS5003;36277;32.852;-116.998;2022-10-31T09:28:04;4.00;4.00;3.00
45700;PMS5003;36277;32.852;-116.998;2022-10-31T09:30:31;2.80;2.80;2.80
45700;PMS5003;36277;32.852;-116.998;2022-10-31T09:33:00;3.80;3.80;3.80
45700;PMS5003;36277;32.852;-116.998;2022-10-31T09:35:28;3.00;3.00;3.00
45700;PMS5003;36277;32.852;-116.998;2022-10-31T09:37:56;3.60;3.60;3.20
45700;PMS5003;36277;32.852;-116.998;2022-10-31T09:40:24;3.00;3.00;3.00
45700;PMS5003;36277;32.852;-116.998;2022-10-31T09:43:07;5.00;5.00;4.00
45700;PMS5003;36277;32.852;-116.998;2022-10-31T09:46:07;3.00;3.00;2.80
45700;PMS5003;36277;32.852;-116.998;2022-10-31T09:48:45;1.20;1.20;1.00
45700;PMS5003;36277;32.852;-116.998;2022-10-31T09:51:45;2.60;2.60;2.20
45700;PMS5003;36277;32.852;-116.998;2022-10-31T09:55:00;3.00;3.00;3.00
45700;PMS5003;36277;32.852;-116.998;2022-10-31T09:57:41;3.20;3.20;2.80
45700;PMS5003;36277;32.852;-116.998;2022-10-31T10:00:18;3.00;3.00;2.20
45700;PMS5003;36277;32.852;-116.998;2022-10-31T10:03:02;3.00;3.00;3.00
45700;PMS5003;36277;32.852;-116.998;2022-10-31T10:06:10;3.00;3.00;2.60
45700;PMS5003;36277;32.852;-116.998;2022-10-31T10:08:46;3.00;3.00;3.00
45700;PMS5003;36277;32.852;-116.998;2022-10-31T10:17:22;2.20;2.20;2.20
45700;PMS5003;36277;32.852;-116.998;2022-10-31T10:22:26;3.00;3.00;2.80
45700;PMS5003;36277;32.852;-116.998;2022-10-31T10:30:54;3.00;3.00;3.00
45700;PMS5003;36277;32.852;-116.998;2022-10-31T10:33:32;3.00;3.00;3.00
45700;PMS5003;36277;32.852;-116.998;2022-10-31T10:36:00;3.00;3.00;3.00
45700;PMS5003;36277;32.852;-116.998;2022-10-31T10:41:20;3.00;3.00;2.80
45700;PMS5003;36277;32.852;-116.998;2022-10-31T10:43:51;3.00;3.00;3.00
45700;PMS5003;36277;32.852;-116.998;2022-10-31T11:00:37;2.80;2.80;2.20
45700;PMS5003;36277;32.852;-116.998;2022-10-31T11:03:07;3.00;3.00;3.00
45700;PMS5003;36277;32.852;-116.998;2022-10-31T11:05:53;3.00;3.00;3.00
45700;PMS5003;36277;32.852;-116.998;2022-10-31T11:08:34;2.60;2.60;2.60
45700;PMS5003;36277;32.852;-116.998;2022-10-31T11:13:47;3.00;3.00;3.00
45700;PMS5003;36277;32.852;-116.998;2022-10-31T11:18:51;4.00;4.00;4.00
45700;PMS5003;36277;32.852;-116.998;2022-10-31T11:21:20;2.40;2.40;2.00
45700;PMS5003;36277;32.852;-116.998;2022-10-31T11:23:50;3.80;3.80;3.00
45700;PMS5003;36277;32.852;-116.998;2022-10-31T11:26:26;3.00;3.00;3.00
45700;PMS5003;36277;32.852;-116.998;2022-10-31T11:28:57;3.20;3.20;3.20
45700;PMS5003;36277;32.852;-116.998;2022-10-31T11:31:24;3.00;3.00;3.00
45700;PMS5003;36277;32.852;-116.998;2022-10-31T11:33:57;3.00;3.00;3.00
45700;PMS5003;36277;32.852;-116.998;2022-10-31T11:36:31;3.00;3.00;3.00
45700;PMS5003;36277;32.852;-116.998;2022-10-31T11:39:04;3.00;3.00;3.00
45700;PMS5003;36277;32.852;-116.998;2022-10-31T11:41:40;2.00;2.00;2.00
45700;PMS5003;36277;32.852;-116.998;2022-10-31T11:44:14;2.60;2.60;2.00
45700;PMS5003;36277;32.852;-116.998;2022-10-31T11:46:54;2.20;2.20;2.00
45700;PMS5003;36277;32.852;-116.998;2022-10-31T11:49:32;2.60;2.60;2.60
45700;PMS5003;36277;32.852;-116.998;2022-10-31T11:52:06;3.00;3.00;2.20
45700;PMS5003;36277;32.852;-116.998;2022-10-31T11:54:57;3.00;3.00;3.00
45700;PMS5003;36277;32.852;-116.998;2022-10-31T12:03:03;3.00;3.00;2.80
45700;PMS5003;36277;32.852;-116.998;2022-10-31T12:05:55;3.00;3.00;2.80
45700;PMS5003;36277;32.852;-116.998;2022-10-31T12:08:34;2.60;2.60;2.40
45700;PMS5003;36277;32.852;-116.998;2022-10-31T12:13:34;2.60;2.60;2.00
45700;PMS5003;36277;32.852;-116.998;2022-10-31T12:32:29;3.00;3.00;2.60
45700;PMS5003;36277;32.852;-116.998;2022-10-31T12:43:31;2.60;2.60;2.00
45700;PMS5003;36277;32.852;-116.998;2022-10-31T12:46:00;3.20;3.20;2.60
45700;PMS5003;36277;32.852;-116.998;2022-10-31T12:48:38;2.20;2.20;2.00
45700;PMS5003;36277;32.852;-116.998;2022-10-31T12:51:22;1.20;1.20;1.00
45700;PMS5003;36277;32.852;-116.998;2022-10-31T12:54:08;3.00;3.00;3.00
45700;PMS5003;36277;32.852;-116.998;2022-10-31T12:59:34;3.00;3.00;3.00
45700;PMS5003;36277;32.852;-116.998;2022-10-31T13:02:19;3.00;3.00;2.00
45700;PMS5003;36277;32.852;-116.998;2022-10-31T13:07:29;2.60;2.60;2.00
45700;PMS5003;36277;32.852;-116.998;2022-10-31T13:12:46;2.00;2.00;2.00
45700;PMS5003;36277;32.852;-116.998;2022-10-31T13:15:25;3.00;3.00;3.00
45700;PMS5003;36277;32.852;-116.998;2022-10-31T13:17:55;4.00;4.00;3.80
45700;PMS5003;36277;32.852;-116.998;2022-10-31T13:20:41;3.00;3.00;3.00
45700;PMS5003;36277;32.852;-116.998;2022-10-31T13:23:29;3.00;3.00;3.00
45700;PMS5003;36277;32.852;-116.998;2022-10-31T13:25:58;3.00;3.00;3.00
45700;PMS5003;36277;32.852;-116.998;2022-10-31T13:31:11;3.00;3.00;3.00
45700;PMS5003;36277;32.852;-116.998;2022-10-31T13:33:46;3.00;3.00;3.00
45700;PMS5003;36277;32.852;-116.998;2022-10-31T13:45:13;2.20;2.20;2.00
45700;PMS5003;36277;32.852;-116.998;2022-10-31T13:47:40;3.00;3.00;3.00
45700;PMS5003;36277;32.852;-116.998;2022-10-31T13:50:21;2.80;2.80;2.80
45700;PMS5003;36277;32.852;-116.998;2022-10-31T13:52:50;3.00;3.00;2.60
45700;PMS5003;36277;32.852;-116.998;2022-10-31T13:58:40;2.20;2.20;2.00
45700;PMS5003;36277;32.852;-116.998;2022-10-31T14:01:46;3.00;3.00;3.00
45700;PMS5003;36277;32.852;-116.998;2022-10-31T14:09:37;2.40;2.40;2.20
45700;PMS5003;36277;32.852;-116.998;2022-10-31T14:12:35;3.00;3.00;3.00
45700;PMS5003;36277;32.852;-116.998;2022-10-31T14:15:19;3.00;3.00;3.00
45700;PMS5003;36277;32.852;-116.998;2022-10-31T14:25:54;2.25;2.25;2.25
45700;PMS5003;36277;32.852;-116.998;2022-10-31T14:28:32;3.00;3.00;2.40
45700;PMS5003;36277;32.852;-116.998;2022-10-31T14:31:00;3.00;3.00;2.80
45700;PMS5003;36277;32.852;-116.998;2022-10-31T14:33:28;3.00;3.00;3.00
45700;PMS5003;36277;32.852;-116.998;2022-10-31T14:47:12;3.20;3.20;2.80
45700;PMS5003;36277;32.852;-116.998;2022-10-31T14:52:24;1.00;1.00;1.00
45700;PMS5003;36277;32.852;-116.998;2022-10-31T14:54:54;3.00;3.00;2.25
45700;PMS5003;36277;32.852;-116.998;2022-10-31T14:57:25;3.00;3.00;3.00
45700;PMS5003;36277;32.852;-116.998;2022-10-31T15:00:06;2.00;2.00;2.00
45700;PMS5003;36277;32.852;-116.998;2022-10-31T15:02:38;3.20;3.20;3.00
45700;PMS5003;36277;32.852;-116.998;2022-10-31T15:05:13;2.00;2.00;2.00
45700;PMS5003;36277;32.852;-116.998;2022-10-31T15:07:53;2.60;2.60;2.00
45700;PMS5003;36277;32.852;-116.998;2022-10-31T15:12:55;3.00;3.00;3.00
45700;PMS5003;36277;32.852;-116.998;2022-10-31T15:15:33;3.00;3.00;2.60
45700;PMS5003;36277;32.852;-116.998;2022-10-31T15:18:00;3.00;3.00;2.50
45700;PMS5003;36277;32.852;-116.998;2022-10-31T15:20:29;3.00;3.00;3.00
45700;PMS5003;36277;32.852;-116.998;2022-10-31T15:23:24;4.00;4.00;3.25
45700;PMS5003;36277;32.852;-116.998;2022-10-31T15:26:02;2.75;2.75;2.75
45700;PMS5003;36277;32.852;-116.998;2022-10-31T15:28:30;2.00;2.00;2.00
45700;PMS5003;36277;32.852;-116.998;2022-10-31T15:30:58;3.00;3.00;2.60
45700;PMS5003;36277;32.852;-116.998;2022-10-31T15:33:27;3.00;3.00;3.00
45700;PMS5003;36277;32.852;-116.998;2022-10-31T15:36:01;3.00;3.00;3.00
45700;PMS5003;36277;32.852;-116.998;2022-10-31T15:38:28;3.00;3.00;2.50
45700;PMS5003;36277;32.852;-116.998;2022-10-31T15:40:56;2.80;2.80;2.60
45700;PMS5003;36277;32.852;-116.998;2022-10-31T15:43:35;3.00;3.00;3.00
45700;PMS5003;36277;32.852;-116.998;2022-10-31T15:46:04;4.00;4.00;3.00
45700;PMS5003;36277;32.852;-116.998;2022-10-31T15:48:35;3.00;3.00;3.00
45700;PMS5003;36277;32.852;-116.998;2022-10-31T15:51:02;3.00;3.00;3.00
45700;PMS5003;36277;32.852;-116.998;2022-10-31T15:53:33;2.60;2.60;2.20
45700;PMS5003;36277;32.852;-116.998;2022-10-31T15:56:08;3.00;3.00;2.80
45700;PMS5003;36277;32.852;-116.998;2022-10-31T15:58:44;1.80;1.80;1.60
45700;PMS5003;36277;32.852;-116.998;2022-10-31T16:03:58;3.00;3.00;2.40
45700;PMS5003;36277;32.852;-116.998;2022-10-31T16:06:26;3.00;3.00;3.00
45700;PMS5003;36277;32.852;-116.998;2022-10-31T16:08:53;3.00;3.00;2.00
45700;PMS5003;36277;32.852;-116.998;2022-10-31T16:13:53;2.80;2.80;2.80
45700;PMS5003;36277;32.852;-116.998;2022-10-31T16:16:19;2.00;2.00;2.00
45700;PMS5003;36277;32.852;-116.998;2022-10-31T16:18:47;4.00;4.00;3.00
45700;PMS5003;36277;32.852;-116.998;2022-10-31T16:21:22;3.00;3.00;3.00
45700;PMS5003;36277;32.852;-116.998;2022-10-31T16:24:04;2.20;2.20;2.00
45700;PMS5003;36277;32.852;-116.998;2022-10-31T16:27:06;2.20;2.20;2.20
45700;PMS5003;36277;32.852;-116.998;2022-10-31T16:29:43;2.80;2.80;2.00
45700;PMS5003;36277;32.852;-116.998;2022-10-31T16:32:24;3.00;3.00;2.20
45700;PMS5003;36277;32.852;-116.998;2022-10-31T16:37:41;2.00;2.00;2.00
45700;PMS5003;36277;32.852;-116.998;2022-10-31T16:40:09;2.20;2.20;2.00
45700;PMS5003;36277;32.852;-116.998;2022-10-31T16:42:36;1.40;1.40;1.00
45700;PMS5003;36277;32.852;-116.998;2022-10-31T16:45:04;2.00;2.00;1.80
45700;PMS5003;36277;32.852;-116.998;2022-10-31T16:47:31;2.00;2.00;2.00